Time;durP1;ratioP1;P1;durP2;ratioP2;P2;SDS_P1;SDS_P2;PMS_P1;PMS_P2;Temp;Humidity;BMP_temperature;BMP_pressure;BME280_temperature;BME280_humidity;BME280_pressure;Samples;Min_cycle;Max_cycle;Signal;HPM_P1;HPM_P2
2022/01/07 00:00:23;;;;;;;15.47;11.40;;;3.10;99.90;;;;;;10472415;28;20236;-83
2022/01/07 00:05:27;;;;;;;16.70;10.50;;;3.20;99.90;;;;;;10446193;28;20228;-84
2022/01/07 00:10:30;;;;;;;11.50;9.37;;;3.30;99.90;;;;;;10472951;28;20249;-83
2022/01/07 00:15:32;;;;;;;11.03;9.27;;;3.40;99.90;;;;;;10500835;28;20708;-83
2022/01/07 00:20:37;;;;;;;13.40;9.67;;;3.50;99.90;;;;;;10484457;28;20224;-83
2022/01/07 00:25:39;;;;;;;13.83;9.80;;;3.60;99.90;;;;;;10469386;28;20228;-83
2022/01/07 00:30:41;;;;;;;15.50;11.90;;;3.70;99.90;;;;;;10472107;28;20243;-83
2022/01/07 00:35:45;;;;;;;10.20;8.70;;;3.70;99.90;;;;;;10474461;28;20203;-82
2022/01/07 00:40:47;;;;;;;10.90;9.20;;;3.80;99.90;;;;;;10465041;28;20217;-83
2022/01/07 00:45:49;;;;;;;9.20;8.37;;;3.80;99.90;;;;;;10457092;28;20196;-83
2022/01/07 00:50:53;;;;;;;9.40;8.50;;;3.60;99.90;;;;;;10473141;28;20220;-82
2022/01/07 00:55:55;;;;;;;9.60;8.50;;;3.50;99.90;;;;;;10465449;28;20634;-81
2022/01/07 01:00:57;;;;;;;11.20;8.80;;;3.40;99.90;;;;;;10492847;28;20213;-82
2022/01/07 01:06:00;;;;;;;11.80;9.40;;;3.40;99.90;;;;;;10463085;28;20677;-83
2022/01/07 01:11:04;;;;;;;9.57;8.67;;;3.40;99.90;;;;;;10466020;28;20248;-83
2022/01/07 01:16:06;;;;;;;9.53;8.53;;;3.50;99.90;;;;;;10449987;28;20588;-83
2022/01/07 01:21:09;;;;;;;11.63;8.03;;;3.60;99.90;;;;;;10490517;28;20704;-83
2022/01/07 01:26:12;;;;;;;8.10;7.30;;;3.50;99.90;;;;;;10455213;28;20200;-83
2022/01/07 01:31:15;;;;;;;9.77;7.97;;;3.50;99.90;;;;;;10443988;28;20737;-83
2022/01/07 01:36:18;;;;;;;11.23;8.30;;;3.50;99.90;;;;;;10457087;28;20201;-83
2022/01/07 01:41:21;;;;;;;11.40;8.40;;;3.40;99.90;;;;;;10426673;28;20213;-83
2022/01/07 01:46:23;;;;;;;13.50;8.20;;;3.20;99.90;;;;;;10459532;28;20197;-83
2022/01/07 01:51:26;;;;;;;9.90;8.20;;;3.10;99.90;;;;;;10449569;28;20228;-83
2022/01/07 01:56:29;;;;;;;9.80;7.73;;;3.20;99.90;;;;;;10435011;28;20201;-83
2022/01/07 02:01:31;;;;;;;11.17;7.87;;;3.20;99.90;;;;;;10424293;28;20221;-83
2022/01/07 02:06:36;;;;;;;9.30;8.40;;;3.30;99.90;;;;;;10441543;28;20227;-83
2022/01/07 02:11:38;;;;;;;9.47;8.47;;;3.30;99.90;;;;;;10456049;28;20245;-83
2022/01/07 02:16:40;;;;;;;10.07;9.00;;;3.40;99.90;;;;;;10443591;28;20577;-84
2022/01/07 02:21:44;;;;;;;9.57;8.27;;;3.30;99.90;;;;;;10457141;28;20217;-83
2022/01/07 02:26:47;;;;;;;10.57;8.63;;;3.30;99.90;;;;;;10445503;28;20199;-83
2022/01/07 02:31:49;;;;;;;9.33;8.13;;;3.40;99.90;;;;;;10455339;28;20232;-83
2022/01/07 02:36:52;;;;;;;11.90;9.30;;;3.50;99.90;;;;;;10438002;28;20223;-83
2022/01/07 02:41:55;;;;;;;9.77;8.53;;;3.50;99.90;;;;;;10467750;28;20295;-83
2022/01/07 02:46:57;;;;;;;9.67;8.40;;;3.50;99.90;;;;;;10484188;28;20670;-83
2022/01/07 02:52:00;;;;;;;10.67;8.70;;;3.50;99.90;;;;;;10478638;28;20232;-83
2022/01/07 02:57:03;;;;;;;11.77;8.33;;;3.50;99.90;;;;;;10454511;28;20197;-83
2022/01/07 03:02:05;;;;;;;9.23;8.33;;;3.60;99.90;;;;;;10484272;28;20240;-83
2022/01/07 03:07:09;;;;;;;8.67;7.13;;;3.60;99.90;;;;;;10461668;28;20201;-83
2022/01/07 03:12:11;;;;;;;9.60;7.70;;;3.60;99.90;;;;;;10444878;28;20221;-83
2022/01/07 03:17:13;;;;;;;8.03;7.27;;;3.60;99.90;;;;;;10492079;28;20202;-83
2022/01/07 03:22:17;;;;;;;8.40;6.50;;;3.60;99.90;;;;;;10458165;28;20295;-84
2022/01/07 03:27:19;;;;;;;8.83;6.53;;;3.60;99.90;;;;;;10457004;28;20507;-83
2022/01/07 03:32:21;;;;;;;9.00;7.30;;;3.60;99.90;;;;;;10450982;28;20618;-83
2022/01/07 03:37:25;;;;;;;7.67;6.97;;;3.60;99.90;;;;;;10446604;28;20205;-84
2022/01/07 03:42:27;;;;;;;8.57;7.60;;;3.60;99.90;;;;;;10466654;28;20263;-83
2022/01/07 03:47:29;;;;;;;7.97;7.10;;;3.60;99.90;;;;;;10474967;28;20205;-84
2022/01/07 03:52:32;;;;;;;8.50;6.90;;;3.60;99.90;;;;;;10469617;28;20312;-84
2022/01/07 03:57:35;;;;;;;8.07;7.30;;;3.60;99.90;;;;;;10453433;28;20319;-84
2022/01/07 04:02:38;;;;;;;9.50;7.43;;;3.50;99.90;;;;;;10478199;28;20235;-83
2022/01/07 04:07:41;;;;;;;9.10;7.40;;;3.50;99.90;;;;;;10451554;28;20211;-83
2022/01/07 04:12:44;;;;;;;7.33;6.73;;;3.50;99.90;;;;;;10491962;28;20232;-83
2022/01/07 04:17:48;;;;;;;7.73;6.93;;;3.50;99.90;;;;;;10498588;28;20215;-82
2022/01/07 04:22:52;;;;;;;8.83;7.67;;;3.50;99.90;;;;;;10477057;28;20216;-82
2022/01/07 04:27:59;;;;;;;7.30;6.50;;;3.50;99.90;;;;;;10469006;28;20200;-81
2022/01/07 04:33:03;;;;;;;8.07;7.23;;;3.50;99.90;;;;;;10472733;28;20740;-83
2022/01/07 04:38:07;;;;;;;9.83;8.07;;;3.50;99.90;;;;;;10453930;28;20200;-82
2022/01/07 04:43:09;;;;;;;8.93;8.13;;;3.50;99.90;;;;;;10467534;28;20267;-83
2022/01/07 04:48:12;;;;;;;9.43;8.53;;;3.50;99.90;;;;;;10470328;28;20287;-83
2022/01/07 04:53:15;;;;;;;11.30;8.20;;;3.60;99.90;;;;;;10489538;28;20228;-82
2022/01/07 04:58:17;;;;;;;11.10;8.80;;;3.40;99.90;;;;;;10465346;28;20196;-82
2022/01/07 05:03:19;;;;;;;11.90;9.37;;;3.40;99.90;;;;;;10450221;28;20221;-83
2022/01/07 05:08:23;;;;;;;13.57;9.30;;;3.40;99.90;;;;;;10470110;28;20196;-84
2022/01/07 05:13:25;;;;;;;11.30;9.17;;;3.40;99.90;;;;;;10447350;28;20307;-83
2022/01/07 05:18:27;;;;;;;11.27;9.57;;;3.40;99.90;;;;;;10477800;28;20760;-82
2022/01/07 05:23:30;;;;;;;11.20;9.10;;;3.40;99.90;;;;;;10458134;28;20228;-83
2022/01/07 05:28:32;;;;;;;12.10;9.67;;;3.40;99.90;;;;;;10478756;28;20275;-83
2022/01/07 05:33:34;;;;;;;11.90;9.00;;;3.40;99.90;;;;;;10481022;28;20303;-83
2022/01/07 05:38:38;;;;;;;10.10;9.10;;;3.30;99.90;;;;;;10460394;28;20207;-83
2022/01/07 05:43:40;;;;;;;9.60;8.60;;;3.40;99.90;;;;;;10470946;28;20224;-85
2022/01/07 05:48:43;;;;;;;12.73;9.63;;;3.40;99.90;;;;;;10479778;28;20205;-84
2022/01/07 05:53:47;;;;;;;13.27;10.70;;;3.40;99.90;;;;;;10454914;28;20597;-84
2022/01/07 05:58:49;;;;;;;12.90;9.70;;;3.40;99.90;;;;;;10445722;28;20197;-83
2022/01/07 06:03:51;;;;;;;11.00;9.87;;;3.40;99.90;;;;;;10472219;28;20906;-80
2022/01/07 06:08:54;;;;;;;14.40;11.03;;;3.50;99.90;;;;;;10439954;28;20193;-81
2022/01/07 06:13:56;;;;;;;12.63;10.77;;;3.60;99.90;;;;;;10462181;28;20240;-80
2022/01/07 06:18:58;;;;;;;12.77;11.20;;;3.60;99.90;;;;;;10485693;28;20204;-81
2022/01/07 06:24:02;;;;;;;11.43;10.23;;;3.60;99.90;;;;;;10482407;28;20280;-81
2022/01/07 06:29:04;;;;;;;12.13;9.77;;;3.70;99.90;;;;;;10499569;28;20674;-80
2022/01/07 06:34:06;;;;;;;11.67;10.57;;;3.70;99.90;;;;;;10472280;23;20233;-79
2022/01/07 06:39:11;;;;;;;10.67;9.67;;;3.70;99.90;;;;;;10441553;28;20244;-80
2022/01/07 06:44:13;;;;;;;12.00;10.80;;;3.70;99.90;;;;;;10456139;28;20266;-80
2022/01/07 06:49:15;;;;;;;10.50;9.47;;;3.70;99.90;;;;;;10454593;28;20208;-79
2022/01/07 06:54:19;;;;;;;10.60;9.50;;;3.70;99.90;;;;;;10454935;28;20720;-79
2022/01/07 06:59:21;;;;;;;11.67;10.57;;;3.70;99.90;;;;;;10455983;28;20220;-79
2022/01/07 07:04:24;;;;;;;10.67;9.57;;;3.60;99.90;;;;;;10457857;28;20221;-79
2022/01/07 07:09:27;;;;;;;11.03;9.87;;;3.60;99.90;;;;;;10433487;28;20213;-80
2022/01/07 07:14:30;;;;;;;11.03;9.80;;;3.50;99.90;;;;;;10450441;28;20221;-80
2022/01/07 07:19:33;;;;;;;10.30;9.30;;;3.50;99.90;;;;;;10438472;28;20201;-80
2022/01/07 07:24:36;;;;;;;9.77;8.50;;;3.30;99.90;;;;;;10457094;28;20259;-80
2022/01/07 07:29:38;;;;;;;10.13;9.20;;;3.10;99.90;;;;;;10453464;28;20228;-80
2022/01/07 07:34:59;;;;;;;12.47;10.57;;;3.10;99.90;;;;;;10446788;28;20224;-80
2022/01/07 07:40:02;;;;;;;10.50;9.20;;;3.00;99.90;;;;;;10443317;28;20200;-80
2022/01/07 07:45:05;;;;;;;10.10;9.10;;;2.90;99.90;;;;;;10449775;28;20644;-80
2022/01/07 07:50:09;;;;;;;10.83;8.90;;;2.90;99.90;;;;;;10456541;28;20208;-81
2022/01/07 07:55:12;;;;;;;10.50;9.43;;;2.90;99.90;;;;;;10441094;28;20693;-80
2022/01/07 08:00:15;;;;;;;11.77;10.57;;;2.90;99.90;;;;;;10458992;28;20208;-80
2022/01/07 08:05:17;;;;;;;11.93;9.70;;;3.00;99.90;;;;;;10455678;28;20296;-81
2022/01/07 08:10:24;;;;;;;10.73;9.60;;;3.20;99.90;;;;;;10457862;28;20204;-81
2022/01/07 08:20:46;;;;;;;10.10;9.20;;;3.50;99.90;;;;;;10461987;28;20213;-81
2022/01/07 08:25:50;;;;;;;11.03;9.93;;;3.70;99.90;;;;;;10454114;28;20616;-81
2022/01/07 08:31:23;;;;;;;9.83;8.83;;;3.80;99.90;;;;;;10461137;28;20233;-80
2022/01/07 08:36:26;;;;;;;10.30;9.20;;;4.00;99.90;;;;;;10451042;28;20205;-81
2022/01/07 08:41:31;;;;;;;9.70;8.70;;;4.10;99.90;;;;;;10446767;28;20228;-81
2022/01/07 08:46:34;;;;;;;10.17;9.13;;;4.20;99.90;;;;;;10455185;28;20208;-80
2022/01/07 08:51:36;;;;;;;9.83;8.80;;;4.40;99.90;;;;;;10440303;28;20275;-81
2022/01/07 08:56:39;;;;;;;10.00;9.03;;;4.50;99.90;;;;;;10444839;28;20190;-81
2022/01/07 09:01:42;;;;;;;10.67;8.97;;;4.50;99.90;;;;;;10445260;28;20224;-78
2022/01/07 09:06:44;;;;;;;9.50;8.60;;;4.50;99.90;;;;;;10454727;28;20205;-80
2022/01/07 09:11:49;;;;;;;10.60;8.30;;;4.60;99.90;;;;;;10454637;28;20221;-81
2022/01/07 09:16:51;;;;;;;9.40;8.50;;;4.60;99.90;;;;;;10462943;28;20649;-81
2022/01/07 09:21:55;;;;;;;9.20;8.30;;;4.60;99.90;;;;;;10454073;28;20221;-79
2022/01/07 09:26:59;;;;;;;9.20;8.30;;;4.70;99.90;;;;;;10447209;28;20201;-80
2022/01/07 09:32:01;;;;;;;9.63;8.07;;;4.80;99.90;;;;;;10429297;28;20228;-76
2022/01/07 09:37:05;;;;;;;8.67;7.87;;;4.90;99.90;;;;;;10446132;28;20215;-77
2022/01/07 09:42:09;;;;;;;9.20;8.30;;;4.80;99.90;;;;;;10451404;28;20875;-78
2022/01/07 09:47:13;;;;;;;9.07;8.17;;;4.70;99.90;;;;;;10450739;28;20202;-77
2022/01/07 09:52:15;;;;;;;8.10;7.40;;;4.70;99.90;;;;;;10449643;28;20227;-79
2022/01/07 09:57:19;;;;;;;9.40;6.80;;;4.70;99.90;;;;;;10431064;28;20197;-77
2022/01/07 10:02:22;;;;;;;7.73;7.00;;;4.80;99.90;;;;;;10451311;28;20721;-77
2022/01/07 10:07:26;;;;;;;8.03;7.27;;;4.80;99.90;;;;;;10438430;28;20224;-79
2022/01/07 10:12:31;;;;;;;8.20;7.40;;;4.80;99.90;;;;;;10455062;28;20294;-78
2022/01/07 10:17:34;;;;;;;6.70;6.10;;;4.90;99.90;;;;;;10456030;28;20206;-81
2022/01/07 10:22:50;;;;;;;7.63;6.93;;;4.90;99.90;;;;;;10442201;28;20356;-81
2022/01/07 10:27:58;;;;;;;7.30;6.67;;;4.90;99.90;;;;;;10459742;28;20193;-80
2022/01/07 10:33:01;;;;;;;10.73;8.33;;;4.90;99.90;;;;;;10461033;28;20233;-81
2022/01/07 10:38:03;;;;;;;9.30;8.40;;;4.80;99.90;;;;;;10463317;28;20201;-81
2022/01/07 10:43:16;;;;;;;8.67;7.87;;;4.70;99.90;;;;;;10474801;28;20518;-79
2022/01/07 10:48:20;;;;;;;9.20;8.30;;;4.50;99.90;;;;;;10472552;28;20724;-81
2022/01/07 10:53:25;;;;;;;9.43;8.53;;;4.60;99.90;;;;;;10449326;28;20443;-80
2022/01/07 10:58:29;;;;;;;9.53;8.53;;;4.70;99.90;;;;;;10450120;28;20232;-80
2022/01/07 11:03:33;;;;;;;9.30;8.30;;;4.70;99.90;;;;;;10455613;28;20213;-79
2022/01/07 11:08:35;;;;;;;10.20;9.20;;;4.70;99.90;;;;;;10442352;28;20573;-81
2022/01/07 11:13:39;;;;;;;9.67;8.13;;;4.70;99.90;;;;;;10455389;28;20248;-80
2022/01/07 11:18:42;;;;;;;11.00;9.77;;;4.60;99.90;;;;;;10454832;28;20198;-80
2022/01/07 11:23:45;;;;;;;11.80;9.30;;;4.60;99.90;;;;;;10455687;28;20339;-81
2022/01/07 11:28:59;;;;;;;10.70;9.70;;;4.50;99.90;;;;;;10456586;28;20193;-80
2022/01/07 11:34:25;;;;;;;13.10;10.43;;;4.50;99.90;;;;;;10435456;28;20221;-81
2022/01/07 11:39:41;;;;;;;10.57;9.07;;;4.50;99.90;;;;;;10409293;28;20232;-81
2022/01/07 11:44:45;;;;;;;10.93;9.27;;;4.50;99.90;;;;;;10418867;28;20217;-78
2022/01/07 11:50:02;;;;;;;10.10;9.10;;;4.50;99.90;;;;;;10427875;28;20209;-79
2022/01/07 11:55:29;;;;;;;9.93;8.93;;;4.60;99.90;;;;;;10455799;28;20697;-80
2022/01/07 12:00:56;;;;;;;11.27;9.50;;;4.60;99.90;;;;;;10441845;28;20299;-81
2022/01/07 12:05:58;;;;;;;10.40;9.40;;;4.80;99.90;;;;;;10449163;28;20201;-81
2022/01/07 12:11:08;;;;;;;12.00;8.90;;;4.90;99.90;;;;;;10454366;28;20308;-81
2022/01/07 12:16:12;;;;;;;9.90;9.00;;;5.00;99.90;;;;;;10454392;28;20688;-79
2022/01/07 12:21:14;;;;;;;10.50;8.63;;;5.10;99.90;;;;;;10456166;28;20221;-81
2022/01/07 12:26:25;;;;;;;9.60;8.50;;;5.20;99.90;;;;;;10441594;28;20296;-81
2022/01/07 12:31:28;;;;;;;8.33;7.63;;;5.20;99.90;;;;;;10459257;28;20233;-80
2022/01/07 12:36:34;;;;;;;8.97;8.07;;;5.10;99.90;;;;;;10449897;28;20240;-78
2022/01/07 12:41:37;;;;;;;9.63;7.40;;;5.10;99.90;;;;;;10453520;28;20708;-79
2022/01/07 12:46:42;;;;;;;7.43;6.73;;;5.20;99.90;;;;;;10442336;28;20208;-78
2022/01/07 12:51:44;;;;;;;8.83;8.03;;;5.30;99.90;;;;;;10429948;28;20697;-78
2022/01/07 12:56:46;;;;;;;8.27;7.20;;;5.30;99.90;;;;;;10452342;28;20228;-78
2022/01/07 13:01:50;;;;;;;7.87;7.10;;;5.40;99.90;;;;;;10447718;28;20295;-78
2022/01/07 13:06:54;;;;;;;6.50;5.90;;;5.40;99.90;;;;;;10427788;28;20213;-79
2022/01/07 13:12:00;;;;;;;7.60;5.80;;;5.40;99.90;;;;;;10439562;28;20231;-78
2022/01/07 13:17:08;;;;;;;8.37;6.40;;;5.40;99.90;;;;;;10420923;28;20201;-77
2022/01/07 13:22:11;;;;;;;6.87;5.97;;;5.40;99.90;;;;;;10434830;28;20225;-79
2022/01/07 13:27:16;;;;;;;7.83;6.37;;;5.40;99.90;;;;;;10432454;28;20197;-79
2022/01/07 13:32:23;;;;;;;6.43;5.83;;;5.40;99.90;;;;;;10434787;28;20252;-77
2022/01/07 13:37:29;;;;;;;6.13;5.50;;;5.40;99.90;;;;;;10423156;28;20308;-77
2022/01/07 13:42:32;;;;;;;6.43;5.20;;;5.50;99.90;;;;;;10434645;28;20210;-78
2022/01/07 13:47:37;;;;;;;6.00;5.50;;;5.50;99.90;;;;;;10434855;28;20227;-79
2022/01/07 13:52:40;;;;;;;6.30;5.70;;;5.60;99.90;;;;;;10428218;28;20680;-78
2022/01/07 13:57:42;;;;;;;5.57;5.07;;;5.60;99.90;;;;;;10427795;28;20292;-78
2022/01/07 14:02:48;;;;;;;5.83;5.23;;;5.60;99.90;;;;;;10423320;28;20213;-79
2022/01/07 14:07:53;;;;;;;5.97;5.27;;;5.60;99.90;;;;;;10423754;28;20676;-78
2022/01/07 14:12:59;;;;;;;3.90;3.60;;;5.60;99.90;;;;;;10421712;28;20575;-80
2022/01/07 14:18:09;;;;;;;5.73;4.90;;;5.60;99.90;;;;;;10432258;28;20210;-80
2022/01/07 14:23:12;;;;;;;5.20;4.40;;;5.70;99.90;;;;;;10424245;28;20210;-78
2022/01/07 14:28:15;;;;;;;5.73;4.97;;;5.60;99.90;;;;;;10430544;28;20261;-79
2022/01/07 14:33:19;;;;;;;5.50;4.60;;;5.60;99.90;;;;;;10432330;28;20704;-79
2022/01/07 14:38:21;;;;;;;5.53;4.97;;;5.60;99.90;;;;;;10429766;28;20225;-80
2022/01/07 14:43:30;;;;;;;4.90;4.40;;;5.50;99.90;;;;;;10431354;28;20224;-79
2022/01/07 14:48:33;;;;;;;5.10;4.10;;;5.50;99.90;;;;;;10433726;28;20209;-80
2022/01/07 14:53:35;;;;;;;5.03;4.10;;;5.50;99.90;;;;;;10414089;28;20241;-79
2022/01/07 14:58:38;;;;;;;4.17;3.87;;;5.50;99.90;;;;;;10433236;28;20205;-80
2022/01/07 15:03:43;;;;;;;8.33;4.50;;;5.50;99.90;;;;;;10433828;28;20220;-79
2022/01/07 15:08:45;;;;;;;4.53;4.17;;;5.50;99.90;;;;;;10435085;28;20202;-79
2022/01/07 15:13:47;;;;;;;4.93;4.50;;;5.50;99.90;;;;;;10432713;28;20224;-79
2022/01/07 15:18:50;;;;;;;6.10;5.60;;;5.50;99.90;;;;;;10432717;28;20209;-79
2022/01/07 15:23:53;;;;;;;6.00;4.33;;;5.50;99.90;;;;;;10439076;28;20213;-79
2022/01/07 15:28:55;;;;;;;4.13;3.73;;;5.50;99.90;;;;;;10452013;28;20233;-79
2022/01/07 15:33:58;;;;;;;5.93;4.13;;;5.60;99.90;;;;;;10440870;28;20312;-80
2022/01/07 15:39:01;;;;;;;4.10;3.67;;;5.50;99.90;;;;;;10447549;28;20276;-82
2022/01/07 15:44:03;;;;;;;4.80;3.67;;;5.50;99.90;;;;;;10441197;28;20210;-80
2022/01/07 15:49:07;;;;;;;6.10;3.77;;;5.50;99.90;;;;;;10435704;28;20194;-80
2022/01/07 15:54:09;;;;;;;4.73;3.90;;;5.60;99.90;;;;;;10424346;28;20260;-81
2022/01/07 15:59:11;;;;;;;3.97;3.60;;;5.60;99.90;;;;;;10430631;28;20190;-80
2022/01/07 16:04:15;;;;;;;5.03;3.57;;;5.50;99.90;;;;;;10456351;28;20255;-82
2022/01/07 16:09:17;;;;;;;3.83;3.47;;;5.50;99.90;;;;;;10432913;28;20202;-81
2022/01/07 16:14:19;;;;;;;3.60;3.30;;;5.60;99.90;;;;;;10438771;28;20251;-82
2022/01/07 16:19:23;;;;;;;3.83;2.87;;;5.60;99.90;;;;;;10442470;28;20197;-82
2022/01/07 16:24:25;;;;;;;3.27;2.97;;;5.60;99.90;;;;;;10471569;28;20214;-81
2022/01/07 16:29:29;;;;;;;2.93;2.73;;;5.60;99.90;;;;;;10416364;28;20263;-81
2022/01/07 16:34:33;;;;;;;4.00;3.40;;;5.60;99.90;;;;;;10420731;28;20290;-80
2022/01/07 16:39:35;;;;;;;3.80;3.00;;;5.60;99.90;;;;;;10445335;28;20197;-80
2022/01/07 16:44:37;;;;;;;4.73;2.90;;;5.60;99.90;;;;;;10459104;28;20221;-80
2022/01/07 16:49:41;;;;;;;4.03;3.63;;;5.70;99.90;;;;;;10456599;28;20658;-80
2022/01/07 16:54:45;;;;;;;3.73;3.30;;;5.70;99.90;;;;;;10414110;28;20706;-80
2022/01/07 16:59:47;;;;;;;4.30;3.90;;;5.70;99.90;;;;;;10433302;28;20204;-80
2022/01/07 17:04:50;;;;;;;6.03;3.87;;;5.70;99.90;;;;;;10445467;28;20677;-80
2022/01/07 17:09:52;;;;;;;3.77;3.37;;;5.70;99.90;;;;;;10448030;28;20204;-80
2022/01/07 17:14:54;;;;;;;2.83;2.63;;;5.70;99.90;;;;;;10455850;28;20228;-81
2022/01/07 17:19:58;;;;;;;3.57;3.10;;;5.80;99.90;;;;;;10454678;28;20201;-80
2022/01/07 17:25:01;;;;;;;3.50;3.20;;;5.70;99.90;;;;;;10448380;28;20213;-80
2022/01/07 17:30:05;;;;;;;2.93;2.70;;;5.80;99.90;;;;;;10450379;28;20208;-80
2022/01/07 17:35:09;;;;;;;4.63;3.63;;;5.70;99.90;;;;;;10434348;28;20343;-80
2022/01/07 17:40:12;;;;;;;4.47;4.03;;;5.70;99.90;;;;;;10445743;28;20205;-80
2022/01/07 17:45:14;;;;;;;6.03;3.50;;;5.70;99.90;;;;;;10448852;28;20648;-80
2022/01/07 17:50:20;;;;;;;4.30;3.90;;;5.70;99.90;;;;;;10453082;28;20203;-80
2022/01/07 17:55:22;;;;;;;4.30;3.60;;;5.70;99.90;;;;;;10430991;28;20723;-80
2022/01/07 18:00:24;;;;;;;4.43;3.97;;;5.60;99.90;;;;;;10448004;28;20681;-79
2022/01/07 18:05:28;;;;;;;3.40;2.93;;;5.60;99.90;;;;;;10454211;28;20654;-79
2022/01/07 18:10:30;;;;;;;4.00;3.70;;;5.60;99.90;;;;;;10459327;28;20225;-79
2022/01/07 18:15:32;;;;;;;3.43;3.13;;;5.60;99.90;;;;;;10455849;28;20312;-80
2022/01/07 18:20:36;;;;;;;3.40;3.10;;;5.60;99.90;;;;;;10458218;28;20201;-79
2022/01/07 18:25:39;;;;;;;3.00;2.70;;;5.60;99.90;;;;;;10453331;28;20202;-79
2022/01/07 18:35:47;;;;;;;3.70;3.27;;;5.70;99.90;;;;;;10366342;28;20582;-77
2022/01/07 18:40:49;;;;;;;3.17;2.87;;;5.70;99.90;;;;;;10390476;28;20214;-77
2022/01/07 18:45:52;;;;;;;2.73;2.50;;;5.60;99.90;;;;;;10370036;28;20209;-77
2022/01/07 18:50:56;;;;;;;3.10;2.90;;;5.60;99.90;;;;;;10370801;28;20199;-77
2022/01/07 18:55:58;;;;;;;2.63;2.40;;;5.60;99.90;;;;;;10365740;28;20207;-77
2022/01/07 19:01:01;;;;;;;3.13;2.77;;;5.60;99.90;;;;;;10372161;28;20237;-77
2022/01/07 19:06:06;;;;;;;3.70;3.40;;;5.50;99.90;;;;;;10374387;28;20197;-77
2022/01/07 19:11:08;;;;;;;2.67;2.47;;;5.50;99.90;;;;;;10366812;28;20301;-77
2022/01/07 19:16:11;;;;;;;2.33;2.23;;;5.50;99.90;;;;;;10361996;28;20219;-77
2022/01/07 19:21:14;;;;;;;2.20;2.10;;;5.50;99.90;;;;;;10369826;28;20217;-77
2022/01/07 19:26:16;;;;;;;2.77;2.57;;;5.40;99.90;;;;;;10364231;28;20195;-77
2022/01/07 19:31:19;;;;;;;2.13;2.03;;;5.50;99.90;;;;;;10371591;28;20651;-77
2022/01/07 19:36:22;;;;;;;2.50;2.30;;;5.50;99.90;;;;;;10368201;28;20215;-77
2022/01/07 19:41:25;;;;;;;2.63;2.43;;;5.50;99.90;;;;;;10367151;28;20707;-77
2022/01/07 19:46:27;;;;;;;2.60;2.37;;;5.60;99.90;;;;;;10367254;28;20203;-77
2022/01/07 19:51:31;;;;;;;2.70;2.03;;;5.60;99.90;;;;;;10370056;28;20227;-77
2022/01/07 19:56:33;;;;;;;1.77;1.67;;;5.50;99.90;;;;;;10366348;28;20218;-77
2022/01/07 20:01:35;;;;;;;2.40;2.20;;;5.60;99.90;;;;;;10365751;28;20603;-77
2022/01/07 20:06:39;;;;;;;3.03;2.10;;;5.60;99.90;;;;;;10368389;28;20192;-77
2022/01/07 20:11:41;;;;;;;2.87;2.63;;;5.60;99.90;;;;;;10366367;28;20219;-77
2022/01/07 20:16:43;;;;;;;3.00;2.80;;;5.60;99.90;;;;;;10368839;28;20223;-77
2022/01/07 20:21:48;;;;;;;2.73;2.53;;;5.70;99.90;;;;;;10386064;28;20715;-77
2022/01/07 20:26:51;;;;;;;2.93;2.73;;;5.70;99.90;;;;;;10345062;28;20725;-77
2022/01/07 20:31:53;;;;;;;2.90;2.70;;;5.70;99.90;;;;;;10371848;28;20313;-77
2022/01/07 20:36:57;;;;;;;2.60;2.40;;;5.70;99.90;;;;;;10367149;28;20235;-77
2022/01/07 20:41:59;;;;;;;2.40;2.17;;;5.70;99.90;;;;;;10382738;28;20256;-77
2022/01/07 20:47:01;;;;;;;2.50;2.30;;;5.60;99.90;;;;;;10367118;28;20219;-77
2022/01/07 20:52:05;;;;;;;2.13;2.03;;;5.60;99.90;;;;;;10362646;28;20659;-77
2022/01/07 20:57:08;;;;;;;2.13;2.03;;;5.60;99.90;;;;;;10363562;28;20300;-77
2022/01/07 21:02:10;;;;;;;2.47;2.30;;;5.60;99.90;;;;;;10364551;28;20218;-77
2022/01/07 21:07:13;;;;;;;2.03;1.93;;;5.60;99.90;;;;;;10364378;28;20256;-77
2022/01/07 21:12:16;;;;;;;2.40;2.20;;;5.60;99.90;;;;;;10366138;28;20234;-77
2022/01/07 21:17:18;;;;;;;2.63;2.43;;;5.60;99.90;;;;;;10376490;28;20222;-77
2022/01/07 21:22:22;;;;;;;2.60;2.40;;;5.50;99.90;;;;;;10345019;28;20317;-77
2022/01/07 21:27:24;;;;;;;2.20;2.00;;;5.40;99.90;;;;;;10366787;28;20201;-77
2022/01/07 21:32:26;;;;;;;2.50;2.30;;;5.30;99.90;;;;;;10362602;28;20265;-77
2022/01/07 21:37:29;;;;;;;2.53;2.30;;;5.10;99.90;;;;;;10388859;28;20218;-77
2022/01/07 21:42:32;;;;;;;2.70;2.43;;;5.00;99.90;;;;;;10377716;28;20223;-77
2022/01/07 21:47:34;;;;;;;2.33;2.13;;;5.00;99.90;;;;;;10352396;28;20199;-77
2022/01/07 21:52:37;;;;;;;2.00;1.90;;;5.00;99.90;;;;;;10376828;28;20241;-77
2022/01/07 21:57:41;;;;;;;3.23;2.00;;;5.00;99.90;;;;;;10359667;28;20226;-77
2022/01/07 22:02:43;;;;;;;2.20;2.00;;;5.10;99.90;;;;;;10376622;28;20229;-77
2022/01/07 22:07:47;;;;;;;3.53;2.10;;;5.00;99.90;;;;;;10375993;28;20202;-77
2022/01/07 22:12:51;;;;;;;2.63;2.03;;;4.90;99.90;;;;;;10370612;28;20223;-79
2022/01/07 22:17:53;;;;;;;2.40;2.03;;;5.00;99.90;;;;;;10354449;28;20230;-77
2022/01/07 22:22:57;;;;;;;2.07;1.97;;;5.00;99.90;;;;;;10364414;28;20694;-77
2022/01/07 22:27:59;;;;;;;2.23;2.13;;;5.00;99.90;;;;;;10384673;28;20245;-77
2022/01/07 22:33:01;;;;;;;3.03;2.73;;;5.00;99.90;;;;;;10376306;28;20724;-77
2022/01/07 22:38:04;;;;;;;3.00;2.73;;;5.00;99.90;;;;;;10376058;28;20297;-77
2022/01/07 22:43:07;;;;;;;2.50;2.30;;;5.00;99.90;;;;;;10377173;28;20272;-77
2022/01/07 22:48:09;;;;;;;2.60;2.40;;;5.00;99.90;;;;;;10356902;28;20210;-77
2022/01/07 22:53:12;;;;;;;2.00;1.80;;;5.00;99.90;;;;;;10371834;28;20232;-77
2022/01/07 22:58:14;;;;;;;2.50;2.00;;;5.10;99.90;;;;;;10371079;28;20231;-77
2022/01/07 23:03:16;;;;;;;2.40;2.20;;;5.10;99.90;;;;;;10375044;28;20615;-77
2022/01/07 23:08:21;;;;;;;2.43;2.23;;;5.00;99.90;;;;;;10390323;28;20199;-77
2022/01/07 23:13:23;;;;;;;1.90;1.80;;;5.00;99.90;;;;;;10376975;28;20639;-77
2022/01/07 23:18:28;;;;;;;2.90;1.80;;;5.00;99.90;;;;;;10374377;28;20657;-77
2022/01/07 23:23:32;;;;;;;2.13;1.90;;;5.00;99.90;;;;;;10373685;28;20305;-77
2022/01/07 23:28:34;;;;;;;1.90;1.80;;;5.00;99.90;;;;;;10372856;28;20202;-77
2022/01/07 23:33:37;;;;;;;1.53;1.40;;;5.00;99.90;;;;;;10372223;28;20666;-77
2022/01/07 23:38:40;;;;;;;1.87;1.77;;;5.00;99.90;;;;;;10374166;28;21060;-77
2022/01/07 23:43:42;;;;;;;2.27;1.70;;;5.00;99.90;;;;;;10367443;28;20590;-77
2022/01/07 23:48:44;;;;;;;1.40;1.40;;;5.10;99.90;;;;;;10366903;28;20626;-77
2022/01/07 23:53:48;;;;;;;1.80;1.63;;;5.00;99.90;;;;;;10373781;28;20309;-77
2022/01/07 23:58:50;;;;;;;2.07;1.60;;;5.00;99.90;;;;;;10367340;28;20230;-77
